sensor_id;sensor_type;location;lat;lon;timestamp;pressure;altitude;pressure_sealevel;temperature;humidity
50011;BME280;35899;50.352;19.390;2023-12-04T00:01:43;98304.12;;;-5.31;100.00
50011;BME280;35899;50.352;19.390;2023-12-04T00:04:10;98301.91;;;-5.28;100.00
50011;BME280;35899;50.352;19.390;2023-12-04T00:06:37;98297.20;;;-5.26;100.00
50011;BME280;35899;50.352;19.390;2023-12-04T00:09:04;98290.45;;;-5.25;100.00
50011;BME280;35899;50.352;19.390;2023-12-04T00:11:30;98286.75;;;-5.25;100.00
50011;BME280;35899;50.352;19.390;2023-12-04T00:13:59;98285.22;;;-5.23;100.00
50011;BME280;35899;50.352;19.390;2023-12-04T00:16:26;98288.43;;;-5.21;100.00
50011;BME280;35899;50.352;19.390;2023-12-04T00:18:53;98291.29;;;-5.20;100.00
50011;BME280;35899;50.352;19.390;2023-12-04T00:21:20;98291.61;;;-5.19;100.00
50011;BME280;35899;50.352;19.390;2023-12-04T00:23:46;98290.44;;;-5.20;100.00
50011;BME280;35899;50.352;19.390;2023-12-04T00:26:14;98299.38;;;-5.19;100.00
50011;BME280;35899;50.352;19.390;2023-12-04T00:28:41;98304.79;;;-5.18;100.00
50011;BME280;35899;50.352;19.390;2023-12-04T00:31:08;98307.31;;;-5.16;100.00
50011;BME280;35899;50.352;19.390;2023-12-04T00:33:35;98314.39;;;-5.15;100.00
50011;BME280;35899;50.352;19.390;2023-12-04T00:36:02;98313.89;;;-5.13;100.00
50011;BME280;35899;50.352;19.390;2023-12-04T00:38:29;98313.05;;;-5.12;100.00
50011;BME280;35899;50.352;19.390;2023-12-04T00:40:56;98310.02;;;-5.12;100.00
50011;BME280;35899;50.352;19.390;2023-12-04T00:43:23;98307.48;;;-5.13;100.00
50011;BME280;35899;50.352;19.390;2023-12-04T00:45:49;98306.80;;;-5.14;100.00
50011;BME280;35899;50.352;19.390;2023-12-04T00:48:16;98305.61;;;-5.13;100.00
50011;BME280;35899;50.352;19.390;2023-12-04T00:50:43;98305.62;;;-5.13;100.00
50011;BME280;35899;50.352;19.390;2023-12-04T00:53:28;98306.30;;;-5.12;100.00
50011;BME280;35899;50.352;19.390;2023-12-04T00:55:54;98307.82;;;-5.12;100.00
50011;BME280;35899;50.352;19.390;2023-12-04T00:58:21;98309.00;;;-5.13;100.00
50011;BME280;35899;50.352;19.390;2023-12-04T01:00:48;98315.06;;;-5.13;100.00
50011;BME280;35899;50.352;19.390;2023-12-04T01:03:14;98319.62;;;-5.13;100.00
50011;BME280;35899;50.352;19.390;2023-12-04T01:05:41;98321.32;;;-5.12;100.00
50011;BME280;35899;50.352;19.390;2023-12-04T01:08:11;98322.48;;;-5.11;100.00
50011;BME280;35899;50.352;19.390;2023-12-04T01:10:39;98318.77;;;-5.11;100.00
50011;BME280;35899;50.352;19.390;2023-12-04T01:13:06;98318.10;;;-5.10;100.00
50011;BME280;35899;50.352;19.390;2023-12-04T01:15:32;98315.23;;;-5.09;100.00
50011;BME280;35899;50.352;19.390;2023-12-04T01:17:59;98311.69;;;-5.09;100.00
50011;BME280;35899;50.352;19.390;2023-12-04T01:20:26;98312.38;;;-5.14;100.00
50011;BME280;35899;50.352;19.390;2023-12-04T01:22:53;98312.54;;;-5.19;100.00
50011;BME280;35899;50.352;19.390;2023-12-04T01:25:20;98313.40;;;-5.27;100.00
50011;BME280;35899;50.352;19.390;2023-12-04T01:27:46;98310.02;;;-5.36;100.00
50011;BME280;35899;50.352;19.390;2023-12-04T01:30:13;98311.55;;;-5.44;100.00
50011;BME280;35899;50.352;19.390;2023-12-04T01:32:43;98316.43;;;-5.53;100.00
50011;BME280;35899;50.352;19.390;2023-12-04T01:35:09;98315.75;;;-5.60;100.00
50011;BME280;35899;50.352;19.390;2023-12-04T01:37:37;98317.44;;;-5.66;100.00
50011;BME280;35899;50.352;19.390;2023-12-04T01:40:04;98312.20;;;-5.70;100.00
50011;BME280;35899;50.352;19.390;2023-12-04T01:42:31;98310.52;;;-5.71;100.00
50011;BME280;35899;50.352;19.390;2023-12-04T01:44:58;98312.70;;;-5.74;100.00
50011;BME280;35899;50.352;19.390;2023-12-04T01:47:25;98314.89;;;-5.78;100.00
50011;BME280;35899;50.352;19.390;2023-12-04T01:49:51;98316.41;;;-5.83;100.00
50011;BME280;35899;50.352;19.390;2023-12-04T01:52:18;98314.71;;;-5.86;100.00
50011;BME280;35899;50.352;19.390;2023-12-04T01:54:45;98315.72;;;-5.88;100.00
50011;BME280;35899;50.352;19.390;2023-12-04T01:57:12;98311.84;;;-5.89;100.00
50011;BME280;35899;50.352;19.390;2023-12-04T01:59:38;98309.83;;;-5.91;100.00
50011;BME280;35899;50.352;19.390;2023-12-04T02:02:05;98309.98;;;-5.93;100.00
50011;BME280;35899;50.352;19.390;2023-12-04T02:04:32;98312.02;;;-5.95;100.00
50011;BME280;35899;50.352;19.390;2023-12-04T02:06:59;98310.67;;;-5.99;100.00
50011;BME280;35899;50.352;19.390;2023-12-04T02:09:26;98314.73;;;-5.99;100.00
50011;BME280;35899;50.352;19.390;2023-12-04T02:11:53;98314.38;;;-5.98;100.00
50011;BME280;35899;50.352;19.390;2023-12-04T02:14:24;98310.51;;;-5.98;100.00
50011;BME280;35899;50.352;19.390;2023-12-04T02:16:52;98309.50;;;-5.97;100.00
50011;BME280;35899;50.352;19.390;2023-12-04T02:19:21;98309.16;;;-5.97;100.00
50011;BME280;35899;50.352;19.390;2023-12-04T02:21:48;98309.81;;;-5.95;100.00
50011;BME280;35899;50.352;19.390;2023-12-04T02:24:15;98309.48;;;-5.93;100.00
50011;BME280;35899;50.352;19.390;2023-12-04T02:26:47;98307.96;;;-5.93;100.00
50011;BME280;35899;50.352;19.390;2023-12-04T02:29:26;98309.31;;;-5.94;100.00
50011;BME280;35899;50.352;19.390;2023-12-04T02:31:57;98311.36;;;-5.95;100.00
50011;BME280;35899;50.352;19.390;2023-12-04T02:34:25;98311.54;;;-5.96;100.00
50011;BME280;35899;50.352;19.390;2023-12-04T02:36:53;98311.36;;;-5.96;100.00
50011;BME280;35899;50.352;19.390;2023-12-04T02:39:20;98310.01;;;-5.97;100.00
50011;BME280;35899;50.352;19.390;2023-12-04T02:41:48;98307.64;;;-5.99;100.00
50011;BME280;35899;50.352;19.390;2023-12-04T02:44:14;98312.19;;;-6.02;100.00
50011;BME280;35899;50.352;19.390;2023-12-04T02:46:41;98307.14;;;-6.03;100.00
50011;BME280;35899;50.352;19.390;2023-12-04T02:49:08;98303.59;;;-6.06;100.00
50011;BME280;35899;50.352;19.390;2023-12-04T02:51:34;98304.41;;;-6.10;100.00
50011;BME280;35899;50.352;19.390;2023-12-04T02:54:01;98307.45;;;-6.14;100.00
50011;BME280;35899;50.352;19.390;2023-12-04T02:56:28;98308.77;;;-6.19;100.00
50011;BME280;35899;50.352;19.390;2023-12-04T02:58:55;98315.15;;;-6.25;100.00
50011;BME280;35899;50.352;19.390;2023-12-04T03:01:31;98323.40;;;-6.31;100.00
50011;BME280;35899;50.352;19.390;2023-12-04T03:04:01;98321.70;;;-6.34;100.00
50011;BME280;35899;50.352;19.390;2023-12-04T03:06:28;98316.64;;;-6.37;100.00
50011;BME280;35899;50.352;19.390;2023-12-04T03:08:55;98314.93;;;-6.38;100.00
50011;BME280;35899;50.352;19.390;2023-12-04T03:11:21;98311.23;;;-6.41;100.00
50011;BME280;35899;50.352;19.390;2023-12-04T03:13:48;98313.24;;;-6.44;100.00
50011;BME280;35899;50.352;19.390;2023-12-04T03:16:18;98313.57;;;-6.46;100.00
50011;BME280;35899;50.352;19.390;2023-12-04T03:18:46;98317.44;;;-6.49;100.00
50011;BME280;35899;50.352;19.390;2023-12-04T03:21:13;98313.70;;;-6.53;100.00
50011;BME280;35899;50.352;19.390;2023-12-04T03:23:39;98313.70;;;-6.57;100.00
50011;BME280;35899;50.352;19.390;2023-12-04T03:26:06;98317.05;;;-6.59;100.00
50011;BME280;35899;50.352;19.390;2023-12-04T03:28:33;98314.18;;;-6.60;100.00
50011;BME280;35899;50.352;19.390;2023-12-04T03:31:01;98314.34;;;-6.64;100.00
50011;BME280;35899;50.352;19.390;2023-12-04T03:33:28;98313.98;;;-6.67;100.00
50011;BME280;35899;50.352;19.390;2023-12-04T03:35:55;98314.81;;;-6.72;100.00
50011;BME280;35899;50.352;19.390;2023-12-04T03:38:22;98318.16;;;-6.75;100.00
50011;BME280;35899;50.352;19.390;2023-12-04T03:40:49;98324.02;;;-6.78;100.00
50011;BME280;35899;50.352;19.390;2023-12-04T03:43:20;98325.17;;;-6.85;100.00
50011;BME280;35899;50.352;19.390;2023-12-04T03:45:46;98329.17;;;-6.91;100.00
50011;BME280;35899;50.352;19.390;2023-12-04T03:48:13;98328.66;;;-6.93;100.00
50011;BME280;35899;50.352;19.390;2023-12-04T03:50:40;98331.33;;;-6.95;100.00
50011;BME280;35899;50.352;19.390;2023-12-04T03:53:07;98334.49;;;-7.01;100.00
50011;BME280;35899;50.352;19.390;2023-12-04T03:55:34;98338.86;;;-7.03;100.00
50011;BME280;35899;50.352;19.390;2023-12-04T03:58:00;98343.72;;;-7.06;100.00
50011;BME280;35899;50.352;19.390;2023-12-04T04:00:27;98343.70;;;-7.10;100.00
50011;BME280;35899;50.352;19.390;2023-12-04T04:02:54;98346.17;;;-7.16;100.00
50011;BME280;35899;50.352;19.390;2023-12-04T04:05:21;98349.66;;;-7.21;100.00
50011;BME280;35899;50.352;19.390;2023-12-04T04:07:47;98352.13;;;-7.28;100.00
50011;BME280;35899;50.352;19.390;2023-12-04T04:10:16;98352.09;;;-7.34;100.00
50011;BME280;35899;50.352;19.390;2023-12-04T04:12:43;98352.87;;;-7.40;100.00
50011;BME280;35899;50.352;19.390;2023-12-04T04:15:09;98356.70;;;-7.45;100.00
50011;BME280;35899;50.352;19.390;2023-12-04T04:17:36;98354.48;;;-7.50;100.00
50011;BME280;35899;50.352;19.390;2023-12-04T04:20:03;98351.41;;;-7.54;100.00
50011;BME280;35899;50.352;19.390;2023-12-04T04:22:30;98352.05;;;-7.58;100.00
50011;BME280;35899;50.352;19.390;2023-12-04T04:24:57;98352.02;;;-7.60;100.00
50011;BME280;35899;50.352;19.390;2023-12-04T04:27:24;98350.16;;;-7.62;100.00
50011;BME280;35899;50.352;19.390;2023-12-04T04:29:51;98349.15;;;-7.63;100.00
50011;BME280;35899;50.352;19.390;2023-12-04T04:32:18;98345.27;;;-7.63;100.00
50011;BME280;35899;50.352;19.390;2023-12-04T04:34:44;98354.17;;;-7.65;100.00
50011;BME280;35899;50.352;19.390;2023-12-04T04:37:11;98355.67;;;-7.67;100.00
50011;BME280;35899;50.352;19.390;2023-12-04T04:39:42;98357.16;;;-7.70;100.00
50011;BME280;35899;50.352;19.390;2023-12-04T04:42:08;98358.29;;;-7.74;100.00
50011;BME280;35899;50.352;19.390;2023-12-04T04:44:35;98359.92;;;-7.78;100.00
50011;BME280;35899;50.352;19.390;2023-12-04T04:47:02;98355.55;;;-7.79;100.00
50011;BME280;35899;50.352;19.390;2023-12-04T04:49:29;98357.56;;;-7.80;100.00
50011;BME280;35899;50.352;19.390;2023-12-04T04:51:55;98356.20;;;-7.81;100.00
50011;BME280;35899;50.352;19.390;2023-12-04T04:54:22;98357.36;;;-7.83;100.00
50011;BME280;35899;50.352;19.390;2023-12-04T04:56:49;98357.16;;;-7.86;100.00
50011;BME280;35899;50.352;19.390;2023-12-04T04:59:15;98357.61;;;-7.91;100.00
50011;BME280;35899;50.352;19.390;2023-12-04T05:01:42;98362.63;;;-7.93;100.00
50011;BME280;35899;50.352;19.390;2023-12-04T05:04:09;98366.65;;;-7.95;100.00
50011;BME280;35899;50.352;19.390;2023-12-04T05:06:36;98365.98;;;-7.95;100.00
50011;BME280;35899;50.352;19.390;2023-12-04T05:09:03;98360.13;;;-7.94;100.00
50011;BME280;35899;50.352;19.390;2023-12-04T05:11:29;98359.28;;;-7.92;100.00
50011;BME280;35899;50.352;19.390;2023-12-04T05:13:56;98354.44;;;-7.90;100.00
50011;BME280;35899;50.352;19.390;2023-12-04T05:16:22;98350.92;;;-7.88;100.00
50011;BME280;35899;50.352;19.390;2023-12-04T05:18:49;98347.42;;;-7.87;100.00
50011;BME280;35899;50.352;19.390;2023-12-04T05:21:16;98342.20;;;-7.88;100.00
50011;BME280;35899;50.352;19.390;2023-12-04T05:23:43;98347.40;;;-7.89;100.00
50011;BME280;35899;50.352;19.390;2023-12-04T05:26:10;98351.39;;;-7.93;100.00
50011;BME280;35899;50.352;19.390;2023-12-04T05:28:37;98348.81;;;-7.97;100.00
50011;BME280;35899;50.352;19.390;2023-12-04T05:31:05;98346.73;;;-8.05;100.00
50011;BME280;35899;50.352;19.390;2023-12-04T05:33:32;98347.98;;;-8.13;100.00
50011;BME280;35899;50.352;19.390;2023-12-04T05:36:00;98344.73;;;-8.19;100.00
50011;BME280;35899;50.352;19.390;2023-12-04T05:38:27;98345.84;;;-8.24;100.00
50011;BME280;35899;50.352;19.390;2023-12-04T05:40:53;98347.79;;;-8.30;100.00
50011;BME280;35899;50.352;19.390;2023-12-04T05:43:20;98349.42;;;-8.35;100.00
50011;BME280;35899;50.352;19.390;2023-12-04T05:45:47;98348.52;;;-8.40;100.00
50011;BME280;35899;50.352;19.390;2023-12-04T05:48:17;98343.94;;;-8.47;100.00
50011;BME280;35899;50.352;19.390;2023-12-04T05:50:43;98344.38;;;-8.51;100.00
50011;BME280;35899;50.352;19.390;2023-12-04T05:53:11;98345.34;;;-8.55;100.00
50011;BME280;35899;50.352;19.390;2023-12-04T05:55:37;98348.61;;;-8.61;100.00
50011;BME280;35899;50.352;19.390;2023-12-04T05:58:04;98353.70;;;-8.70;100.00
50011;BME280;35899;50.352;19.390;2023-12-04T06:00:31;98351.12;;;-8.75;100.00
50011;BME280;35899;50.352;19.390;2023-12-04T06:02:58;98351.40;;;-8.79;100.00
50011;BME280;35899;50.352;19.390;2023-12-04T06:05:24;98354.93;;;-8.78;100.00
50011;BME280;35899;50.352;19.390;2023-12-04T06:07:52;98352.61;;;-8.77;100.00
50011;BME280;35899;50.352;19.390;2023-12-04T06:10:18;98350.39;;;-8.80;100.00
50011;BME280;35899;50.352;19.390;2023-12-04T06:12:51;98345.48;;;-8.82;100.00
50011;BME280;35899;50.352;19.390;2023-12-04T06:15:18;98341.48;;;-8.81;100.00
50011;BME280;35899;50.352;19.390;2023-12-04T06:17:45;98342.86;;;-8.79;100.00
50011;BME280;35899;50.352;19.390;2023-12-04T06:20:11;98345.70;;;-8.79;100.00
50011;BME280;35899;50.352;19.390;2023-12-04T06:22:39;98344.67;;;-8.81;100.00
50011;BME280;35899;50.352;19.390;2023-12-04T06:25:06;98343.52;;;-8.78;100.00
50011;BME280;35899;50.352;19.390;2023-12-04T06:27:33;98348.06;;;-8.78;100.00
50011;BME280;35899;50.352;19.390;2023-12-04T06:30:00;98345.57;;;-8.76;100.00
50011;BME280;35899;50.352;19.390;2023-12-04T06:32:27;98346.88;;;-8.79;100.00
50011;BME280;35899;50.352;19.390;2023-12-04T06:34:54;98348.81;;;-8.84;100.00
50011;BME280;35899;50.352;19.390;2023-12-04T06:37:21;98352.00;;;-8.85;100.00
50011;BME280;35899;50.352;19.390;2023-12-04T06:39:48;98353.70;;;-8.82;100.00
50011;BME280;35899;50.352;19.390;2023-12-04T06:42:35;98352.41;;;-8.78;100.00
50011;BME280;35899;50.352;19.390;2023-12-04T06:45:03;98352.44;;;-8.76;100.00
50011;BME280;35899;50.352;19.390;2023-12-04T06:47:31;98350.77;;;-8.76;100.00
50011;BME280;35899;50.352;19.390;2023-12-04T06:49:58;98349.48;;;-8.85;100.00
50011;BME280;35899;50.352;19.390;2023-12-04T06:52:25;98351.86;;;-8.94;100.00
50011;BME280;35899;50.352;19.390;2023-12-04T06:54:52;98355.43;;;-9.03;100.00
50011;BME280;35899;50.352;19.390;2023-12-04T06:57:19;98354.12;;;-9.13;100.00
50011;BME280;35899;50.352;19.390;2023-12-04T06:59:46;98351.41;;;-9.24;100.00
50011;BME280;35899;50.352;19.390;2023-12-04T07:02:12;98353.80;;;-9.33;100.00
50011;BME280;35899;50.352;19.390;2023-12-04T07:04:39;98356.88;;;-9.39;100.00
50011;BME280;35899;50.352;19.390;2023-12-04T07:07:06;98353.72;;;-9.39;100.00
50011;BME280;35899;50.352;19.390;2023-12-04T07:09:33;98351.73;;;-9.37;100.00
50011;BME280;35899;50.352;19.390;2023-12-04T07:12:00;98349.40;;;-9.36;100.00
50011;BME280;35899;50.352;19.390;2023-12-04T07:14:27;98351.08;;;-9.36;100.00
50011;BME280;35899;50.352;19.390;2023-12-04T07:16:54;98350.47;;;-9.42;100.00
50011;BME280;35899;50.352;19.390;2023-12-04T07:19:21;98348.20;;;-9.49;100.00
50011;BME280;35899;50.352;19.390;2023-12-04T07:21:48;98355.54;;;-9.51;100.00
50011;BME280;35899;50.352;19.390;2023-12-04T07:24:15;98355.38;;;-9.51;100.00
50011;BME280;35899;50.352;19.390;2023-12-04T07:26:42;98359.91;;;-9.50;100.00
50011;BME280;35899;50.352;19.390;2023-12-04T07:29:09;98360.45;;;-9.47;100.00
50011;BME280;35899;50.352;19.390;2023-12-04T07:31:37;98356.66;;;-9.43;100.00
50011;BME280;35899;50.352;19.390;2023-12-04T07:34:04;98358.90;;;-9.39;100.00
50011;BME280;35899;50.352;19.390;2023-12-04T07:36:32;98362.77;;;-9.39;100.00
50011;BME280;35899;50.352;19.390;2023-12-04T07:38:58;98366.96;;;-9.39;100.00
50011;BME280;35899;50.352;19.390;2023-12-04T07:41:25;98365.21;;;-9.33;100.00
50011;BME280;35899;50.352;19.390;2023-12-04T07:43:52;98364.66;;;-9.25;100.00
50011;BME280;35899;50.352;19.390;2023-12-04T07:46:19;98356.44;;;-9.15;100.00
50011;BME280;35899;50.352;19.390;2023-12-04T07:48:47;98364.13;;;-9.04;100.00
50011;BME280;35899;50.352;19.390;2023-12-04T07:51:14;98363.80;;;-8.92;100.00
50011;BME280;35899;50.352;19.390;2023-12-04T07:53:40;98364.99;;;-8.78;100.00
50011;BME280;35899;50.352;19.390;2023-12-04T07:56:08;98363.32;;;-8.66;100.00
50011;BME280;35899;50.352;19.390;2023-12-04T07:58:37;98362.98;;;-8.52;100.00
50011;BME280;35899;50.352;19.390;2023-12-04T08:01:04;98362.95;;;-8.40;100.00
50011;BME280;35899;50.352;19.390;2023-12-04T08:03:31;98363.89;;;-8.31;100.00
50011;BME280;35899;50.352;19.390;2023-12-04T08:05:58;98358.48;;;-8.20;100.00
50011;BME280;35899;50.352;19.390;2023-12-04T08:08:25;98350.58;;;-8.07;100.00
50011;BME280;35899;50.352;19.390;2023-12-04T08:10:52;98350.21;;;-7.93;100.00
50011;BME280;35899;50.352;19.390;2023-12-04T08:13:19;98354.70;;;-7.81;100.00
50011;BME280;35899;50.352;19.390;2023-12-04T08:15:55;98351.56;;;-7.75;100.00
50011;BME280;35899;50.352;19.390;2023-12-04T08:18:21;98349.63;;;-7.67;100.00
50011;BME280;35899;50.352;19.390;2023-12-04T08:20:48;98354.18;;;-7.64;100.00
50011;BME280;35899;50.352;19.390;2023-12-04T08:23:18;98355.23;;;-7.60;100.00
50011;BME280;35899;50.352;19.390;2023-12-04T08:25:44;98355.44;;;-7.54;100.00
50011;BME280;35899;50.352;19.390;2023-12-04T08:28:11;98354.80;;;-7.52;100.00
50011;BME280;35899;50.352;19.390;2023-12-04T08:30:38;98357.38;;;-7.44;100.00
50011;BME280;35899;50.352;19.390;2023-12-04T08:33:05;98359.82;;;-7.34;100.00
50011;BME280;35899;50.352;19.390;2023-12-04T08:35:33;98359.76;;;-7.19;100.00
50011;BME280;35899;50.352;19.390;2023-12-04T08:38:00;98353.27;;;-7.11;100.00
50011;BME280;35899;50.352;19.390;2023-12-04T08:40:27;98354.18;;;-6.99;100.00
50011;BME280;35899;50.352;19.390;2023-12-04T08:42:53;98362.53;;;-6.85;100.00
50011;BME280;35899;50.352;19.390;2023-12-04T08:45:20;98370.34;;;-6.71;100.00
50011;BME280;35899;50.352;19.390;2023-12-04T08:47:47;98366.00;;;-6.65;100.00
50011;BME280;35899;50.352;19.390;2023-12-04T08:50:19;98366.39;;;-6.56;100.00
50011;BME280;35899;50.352;19.390;2023-12-04T08:52:46;98377.91;;;-6.44;100.00
50011;BME280;35899;50.352;19.390;2023-12-04T08:55:13;98379.29;;;-6.37;100.00
50011;BME280;35899;50.352;19.390;2023-12-04T08:57:40;98371.57;;;-6.29;100.00
50011;BME280;35899;50.352;19.390;2023-12-04T09:00:08;98369.58;;;-6.19;100.00
50011;BME280;35899;50.352;19.390;2023-12-04T09:02:38;98372.17;;;-6.03;100.00
50011;BME280;35899;50.352;19.390;2023-12-04T09:05:15;98370.65;;;-5.91;100.00
50011;BME280;35899;50.352;19.390;2023-12-04T09:07:42;98359.89;;;-5.80;100.00
50011;BME280;35899;50.352;19.390;2023-12-04T09:10:29;98360.10;;;-5.57;100.00
50011;BME280;35899;50.352;19.390;2023-12-04T09:13:18;98361.48;;;-5.28;100.00
50011;BME280;35899;50.352;19.390;2023-12-04T09:15:45;98365.34;;;-5.01;100.00
50011;BME280;35899;50.352;19.390;2023-12-04T09:18:18;98368.85;;;-4.71;100.00
50011;BME280;35899;50.352;19.390;2023-12-04T09:20:46;98370.31;;;-4.46;100.00
50011;BME280;35899;50.352;19.390;2023-12-04T09:23:13;98371.42;;;-4.26;100.00
50011;BME280;35899;50.352;19.390;2023-12-04T09:25:40;98366.59;;;-4.03;100.00
50011;BME280;35899;50.352;19.390;2023-12-04T09:28:14;98357.97;;;-3.70;100.00
50011;BME280;35899;50.352;19.390;2023-12-04T09:30:42;98348.54;;;-3.29;100.00
50011;BME280;35899;50.352;19.390;2023-12-04T09:33:09;98349.28;;;-2.79;100.00
50011;BME280;35899;50.352;19.390;2023-12-04T09:35:36;98344.52;;;-2.31;100.00
50011;BME280;35899;50.352;19.390;2023-12-04T09:38:03;98336.33;;;-1.86;100.00
50011;BME280;35899;50.352;19.390;2023-12-04T09:40:33;98333.91;;;-1.37;100.00
50011;BME280;35899;50.352;19.390;2023-12-04T09:42:59;98330.86;;;-0.86;100.00
50011;BME280;35899;50.352;19.390;2023-12-04T09:45:28;98326.70;;;-0.45;100.00
50011;BME280;35899;50.352;19.390;2023-12-04T09:47:56;98321.48;;;-0.05;100.00
50011;BME280;35899;50.352;19.390;2023-12-04T09:50:23;98316.84;;;0.21;99.90
50011;BME280;35899;50.352;19.390;2023-12-04T09:52:51;98314.84;;;0.41;99.07
50011;BME280;35899;50.352;19.390;2023-12-04T09:55:19;98310.86;;;0.80;99.46
50011;BME280;35899;50.352;19.390;2023-12-04T09:57:46;98312.24;;;1.13;98.67
50011;BME280;35899;50.352;19.390;2023-12-04T10:00:13;98309.33;;;1.59;98.96
50011;BME280;35899;50.352;19.390;2023-12-04T10:02:41;98306.52;;;2.03;98.57
50011;BME280;35899;50.352;19.390;2023-12-04T10:05:08;98304.23;;;2.34;96.46
50011;BME280;35899;50.352;19.390;2023-12-04T10:07:36;98301.58;;;2.64;95.52
50011;BME280;35899;50.352;19.390;2023-12-04T10:10:04;98298.30;;;2.86;94.00
50011;BME280;35899;50.352;19.390;2023-12-04T10:12:32;98300.80;;;3.13;94.00
50011;BME280;35899;50.352;19.390;2023-12-04T10:15:07;98296.35;;;3.53;94.72
50011;BME280;35899;50.352;19.390;2023-12-04T10:17:43;98289.75;;;4.02;95.68
50011;BME280;35899;50.352;19.390;2023-12-04T10:20:15;98280.71;;;4.46;95.08
50011;BME280;35899;50.352;19.390;2023-12-04T10:23:00;98280.67;;;4.85;95.02
50011;BME280;35899;50.352;19.390;2023-12-04T10:25:29;98286.11;;;5.39;94.38
50011;BME280;35899;50.352;19.390;2023-12-04T10:28:12;98281.73;;;5.65;91.89
50011;BME280;35899;50.352;19.390;2023-12-04T10:30:39;98278.02;;;6.13;93.95
50011;BME280;35899;50.352;19.390;2023-12-04T10:33:07;98277.73;;;6.63;92.98
50011;BME280;35899;50.352;19.390;2023-12-04T10:35:38;98269.70;;;7.00;91.84
50011;BME280;35899;50.352;19.390;2023-12-04T10:38:06;98266.78;;;7.34;90.04
50011;BME280;35899;50.352;19.390;2023-12-04T10:40:35;98264.73;;;7.54;87.79
50011;BME280;35899;50.352;19.390;2023-12-04T10:45:36;98255.47;;;7.82;83.39
50011;BME280;35899;50.352;19.390;2023-12-04T10:48:04;98256.46;;;7.90;83.16
50011;BME280;35899;50.352;19.390;2023-12-04T10:50:33;98252.58;;;8.13;82.74
50011;BME280;35899;50.352;19.390;2023-12-04T10:53:01;98249.24;;;8.43;82.71
50011;BME280;35899;50.352;19.390;2023-12-04T10:55:35;98244.64;;;8.84;83.41
50011;BME280;35899;50.352;19.390;2023-12-04T10:58:06;98244.34;;;9.13;81.39
50011;BME280;35899;50.352;19.390;2023-12-04T11:00:34;98245.63;;;9.32;80.43
50011;BME280;35899;50.352;19.390;2023-12-04T11:03:05;98238.16;;;9.78;82.80
50011;BME280;35899;50.352;19.390;2023-12-04T11:05:37;98236.61;;;10.25;81.11
50011;BME280;35899;50.352;19.390;2023-12-04T11:08:09;98236.61;;;10.53;79.87
50011;BME280;35899;50.352;19.390;2023-12-04T11:11:01;98232.77;;;10.88;78.91
50011;BME280;35899;50.352;19.390;2023-12-04T11:13:30;98230.23;;;10.87;75.09
50011;BME280;35899;50.352;19.390;2023-12-04T11:16:12;98226.19;;;10.72;72.93
50011;BME280;35899;50.352;19.390;2023-12-04T11:18:48;98225.80;;;10.88;74.89
50011;BME280;35899;50.352;19.390;2023-12-04T11:21:21;98224.77;;;10.88;72.52
50011;BME280;35899;50.352;19.390;2023-12-04T11:23:48;98224.66;;;10.90;72.66
50011;BME280;35899;50.352;19.390;2023-12-04T11:26:16;98214.91;;;11.11;72.46
50011;BME280;35899;50.352;19.390;2023-12-04T11:28:47;98210.67;;;11.58;74.35
50011;BME280;35899;50.352;19.390;2023-12-04T11:31:18;98207.45;;;11.89;71.47
50011;BME280;35899;50.352;19.390;2023-12-04T11:33:45;98202.88;;;11.73;68.35
50011;BME280;35899;50.352;19.390;2023-12-04T11:36:15;98204.20;;;11.49;67.17
50011;BME280;35899;50.352;19.390;2023-12-04T11:38:48;98205.42;;;11.39;66.97
50011;BME280;35899;50.352;19.390;2023-12-04T11:41:19;98202.36;;;11.50;66.98
50011;BME280;35899;50.352;19.390;2023-12-04T11:43:53;98202.86;;;11.41;66.09
50011;BME280;35899;50.352;19.390;2023-12-04T11:46:26;98200.88;;;11.64;65.47
50011;BME280;35899;50.352;19.390;2023-12-04T11:49:26;98198.29;;;11.74;65.00
50011;BME280;35899;50.352;19.390;2023-12-04T11:51:55;98194.27;;;12.09;64.93
50011;BME280;35899;50.352;19.390;2023-12-04T11:54:22;98191.66;;;12.17;64.39
50011;BME280;35899;50.352;19.390;2023-12-04T11:59:38;98191.55;;;11.56;62.39
50011;BME280;35899;50.352;19.390;2023-12-04T12:02:10;98185.85;;;11.26;62.95
50011;BME280;35899;50.352;19.390;2023-12-04T12:04:40;98191.20;;;10.75;62.37
50011;BME280;35899;50.352;19.390;2023-12-04T12:07:07;98187.80;;;9.79;61.90
50011;BME280;35899;50.352;19.390;2023-12-04T12:09:35;98183.20;;;8.76;62.45
50011;BME280;35899;50.352;19.390;2023-12-04T12:12:03;98178.01;;;8.15;63.20
50011;BME280;35899;50.352;19.390;2023-12-04T12:14:30;98171.09;;;8.18;64.38
50011;BME280;35899;50.352;19.390;2023-12-04T12:16:59;98171.33;;;7.93;64.00
50011;BME280;35899;50.352;19.390;2023-12-04T12:19:27;98168.78;;;7.80;64.16
50011;BME280;35899;50.352;19.390;2023-12-04T12:21:55;98167.95;;;7.66;64.51
50011;BME280;35899;50.352;19.390;2023-12-04T12:24:25;98165.48;;;7.93;65.46
50011;BME280;35899;50.352;19.390;2023-12-04T12:26:54;98161.65;;;8.12;65.07
50011;BME280;35899;50.352;19.390;2023-12-04T12:29:21;98158.83;;;8.73;65.64
50011;BME280;35899;50.352;19.390;2023-12-04T12:31:50;98156.64;;;9.75;65.32
50011;BME280;35899;50.352;19.390;2023-12-04T12:34:17;98155.67;;;10.65;64.00
50011;BME280;35899;50.352;19.390;2023-12-04T12:36:44;98154.18;;;11.38;63.69
50011;BME280;35899;50.352;19.390;2023-12-04T12:39:11;98148.88;;;11.81;61.94
50011;BME280;35899;50.352;19.390;2023-12-04T12:41:38;98142.96;;;12.13;62.37
50011;BME280;35899;50.352;19.390;2023-12-04T12:44:05;98138.11;;;12.16;60.90
50011;BME280;35899;50.352;19.390;2023-12-04T12:46:33;98137.33;;;12.22;60.64
50011;BME280;35899;50.352;19.390;2023-12-04T12:49:00;98132.52;;;11.92;59.06
50011;BME280;35899;50.352;19.390;2023-12-04T12:51:28;98127.43;;;11.61;59.28
50011;BME280;35899;50.352;19.390;2023-12-04T12:53:56;98126.36;;;10.97;59.12